createdAt,value
2017-11-30T00:00:04.207Z,11.63
2017-11-30T00:02:33.133Z,9.77
2017-11-30T00:05:01.246Z,11.45
2017-11-30T00:07:29.444Z,14.98
2017-11-30T00:09:58.388Z,13.02
2017-11-30T00:12:26.494Z,12.95
2017-11-30T00:14:56.152Z,14.00
2017-11-30T00:17:24.261Z,17.60
2017-11-30T00:19:52.420Z,14.63
2017-11-30T00:22:20.572Z,14.73
2017-11-30T00:24:48.717Z,16.92
2017-11-30T00:27:16.919Z,18.90
2017-11-30T00:29:45.144Z,19.50
2017-11-30T00:32:13.274Z,17.67
2017-11-30T00:34:41.456Z,17.98
2017-11-30T00:37:09.650Z,20.48
2017-11-30T00:39:37.778Z,22.02
2017-11-30T00:42:05.921Z,21.10
2017-11-30T00:44:34.087Z,21.67
2017-11-30T00:47:02.983Z,24.98
2017-11-30T00:49:31.159Z,24.10
2017-11-30T00:51:59.295Z,25.83
2017-11-30T00:54:27.419Z,24.63
2017-11-30T00:56:55.534Z,26.23
2017-11-30T00:59:23.680Z,27.60
2017-11-30T01:01:51.837Z,27.52
2017-11-30T01:04:20.112Z,28.35
2017-11-30T01:06:48.264Z,28.33
2017-11-30T01:09:17.167Z,32.60
2017-11-30T01:11:45.332Z,26.20
2017-11-30T01:14:13.508Z,26.95
2017-11-30T01:16:41.644Z,29.67
2017-11-30T01:19:09.785Z,34.15
2017-11-30T01:21:37.916Z,27.80
2017-11-30T01:24:06.046Z,24.95
2017-11-30T01:26:34.182Z,29.17
2017-11-30T01:29:02.323Z,29.10
2017-11-30T01:31:31.345Z,26.50
2017-11-30T01:33:59.470Z,30.88
2017-11-30T01:36:27.600Z,25.20
2017-11-30T01:38:55.715Z,23.95
2017-11-30T01:41:23.848Z,23.20
2017-11-30T01:43:52.007Z,22.70
2017-11-30T01:46:20.125Z,25.15
2017-11-30T01:48:48.268Z,24.20
2017-11-30T01:51:16.407Z,23.67
2017-11-30T01:53:44.557Z,24.15
2017-11-30T01:56:12.690Z,23.55
2017-11-30T01:58:40.859Z,20.00
2017-11-30T02:01:09.017Z,23.38
2017-11-30T02:03:37.162Z,28.77
2017-11-30T02:06:06.032Z,21.62
2017-11-30T02:08:34.928Z,22.08
2017-11-30T02:11:03.809Z,21.70
2017-11-30T02:13:32.714Z,19.80
2017-11-30T02:16:01.592Z,23.30
2017-11-30T02:18:30.493Z,19.30
2017-11-30T02:20:59.379Z,19.55
2017-11-30T02:23:28.276Z,17.15
2017-11-30T02:25:57.158Z,20.50
2017-11-30T02:28:26.048Z,20.60
2017-11-30T02:30:54.956Z,19.15
2017-11-30T02:33:23.842Z,22.17
2017-11-30T02:35:51.976Z,20.15
2017-11-30T02:38:20.209Z,20.77
2017-11-30T02:40:48.366Z,18.37
2017-11-30T02:43:16.627Z,21.98
2017-11-30T02:45:45.692Z,21.62
2017-11-30T02:48:13.880Z,18.30
2017-11-30T02:50:42.024Z,23.08
2017-11-30T02:53:10.993Z,21.48
2017-11-30T02:55:39.159Z,20.80
2017-11-30T02:58:07.288Z,27.92
2017-11-30T03:00:35.416Z,25.50
2017-11-30T03:03:03.604Z,21.65
2017-11-30T03:05:31.729Z,21.90
2017-11-30T03:08:00.640Z,21.08
2017-11-30T03:10:28.776Z,20.23
2017-11-30T03:12:57.704Z,22.42
2017-11-30T03:15:25.856Z,19.77
2017-11-30T03:17:54.008Z,23.30
2017-11-30T03:20:22.141Z,20.58
2017-11-30T03:22:50.276Z,23.48
2017-11-30T03:25:18.481Z,20.95
2017-11-30T03:27:46.597Z,22.37
2017-11-30T03:30:14.739Z,19.23
2017-11-30T03:32:42.872Z,24.33
2017-11-30T03:35:11.025Z,25.17
2017-11-30T03:37:39.928Z,22.85
2017-11-30T03:40:08.067Z,24.20
2017-11-30T03:42:37.069Z,26.85
2017-11-30T03:45:05.998Z,24.97
2017-11-30T03:47:34.164Z,23.70
2017-11-30T03:50:02.315Z,30.95
2017-11-30T03:52:31.237Z,21.20
2017-11-30T03:55:01.145Z,23.02
2017-11-30T03:57:31.132Z,25.80
2017-11-30T04:00:00.083Z,25.67
2017-11-30T04:02:28.224Z,24.37
2017-11-30T04:04:56.392Z,26.52
2017-11-30T04:07:24.573Z,24.52
2017-11-30T04:09:52.687Z,24.17
2017-11-30T04:12:20.877Z,25.70
2017-11-30T04:14:49.133Z,25.60
2017-11-30T04:17:17.273Z,21.80
2017-11-30T04:19:45.439Z,21.35
2017-11-30T04:22:13.550Z,23.92
2017-11-30T04:24:41.720Z,25.90
2017-11-30T04:27:09.833Z,25.55
2017-11-30T04:29:38.764Z,25.00
2017-11-30T04:32:06.881Z,24.00
2017-11-30T04:34:35.784Z,25.62
2017-11-30T04:37:04.690Z,27.87
2017-11-30T04:39:32.810Z,22.65
2017-11-30T04:42:00.946Z,28.77
2017-11-30T04:44:29.113Z,23.50
2017-11-30T04:46:57.227Z,24.20
2017-11-30T04:49:25.490Z,24.52
2017-11-30T04:51:53.613Z,26.77
2017-11-30T04:54:21.804Z,25.65
2017-11-30T04:56:49.959Z,24.40
2017-11-30T04:59:18.869Z,25.77
2017-11-30T05:01:46.981Z,25.52
2017-11-30T05:04:15.146Z,26.25
2017-11-30T05:06:44.078Z,25.67
2017-11-30T05:09:13.013Z,24.37
2017-11-30T05:11:41.273Z,26.60
2017-11-30T05:14:09.376Z,25.10
2017-11-30T05:16:37.499Z,26.27
2017-11-30T05:19:05.623Z,24.37
2017-11-30T05:21:33.780Z,24.65
2017-11-30T05:24:01.907Z,20.10
2017-11-30T05:26:30.807Z,19.48
2017-11-30T05:28:58.954Z,22.30
2017-11-30T05:31:27.882Z,24.23
2017-11-30T05:33:56.779Z,20.65
2017-11-30T05:36:24.932Z,20.92
2017-11-30T05:38:53.815Z,25.62
2017-11-30T05:41:22.997Z,21.02
2017-11-30T05:43:51.884Z,19.50
2017-11-30T05:46:20.792Z,19.00
2017-11-30T05:48:49.685Z,24.77
2017-11-30T05:51:17.807Z,18.25
2017-11-30T05:53:45.936Z,18.58
2017-11-30T05:56:14.060Z,19.52
2017-11-30T05:58:42.203Z,18.83
2017-11-30T06:01:10.317Z,18.92
2017-11-30T06:03:39.217Z,18.17
2017-11-30T06:06:08.116Z,19.87
2017-11-30T06:08:37.009Z,20.15
2017-11-30T06:11:05.153Z,16.00
2017-11-30T06:13:33.289Z,16.43
2017-11-30T06:16:01.407Z,15.25
2017-11-30T06:18:29.623Z,13.80
2017-11-30T06:20:57.738Z,16.95
2017-11-30T06:23:25.930Z,20.70
2017-11-30T06:25:54.077Z,17.60
2017-11-30T06:28:22.439Z,21.92
2017-11-30T06:30:50.554Z,19.17
2017-11-30T06:33:19.453Z,15.07
2017-11-30T06:35:48.359Z,17.17
2017-11-30T06:38:17.289Z,17.23
2017-11-30T06:40:45.420Z,16.45
2017-11-30T06:43:13.608Z,16.08
2017-11-30T06:45:41.737Z,16.52
2017-11-30T06:48:10.628Z,14.27
2017-11-30T06:50:39.530Z,18.27
2017-11-30T06:53:08.450Z,14.40
2017-11-30T06:55:36.565Z,14.30
2017-11-30T06:58:04.726Z,18.17
2017-11-30T07:00:32.850Z,14.57
2017-11-30T07:03:00.999Z,15.27
2017-11-30T07:05:29.140Z,16.08
2017-11-30T07:07:57.283Z,15.00
2017-11-30T07:10:25.455Z,12.15
2017-11-30T07:12:54.322Z,14.87
2017-11-30T07:15:23.222Z,16.57
2017-11-30T07:17:51.412Z,15.55
2017-11-30T07:20:19.553Z,12.68
2017-11-30T07:22:48.472Z,18.20
2017-11-30T07:25:16.650Z,17.27
2017-11-30T07:27:46.014Z,16.90
2017-11-30T07:30:14.923Z,15.90
2017-11-30T07:32:43.052Z,17.37
2017-11-30T07:35:11.186Z,19.08
2017-11-30T07:37:39.441Z,12.18
2017-11-30T07:40:07.574Z,14.15
2017-11-30T07:42:35.703Z,14.50
2017-11-30T07:45:03.861Z,14.60
2017-11-30T07:47:31.979Z,12.80
2017-11-30T07:50:00.132Z,12.40
2017-11-30T07:52:28.238Z,13.62
2017-11-30T07:54:56.396Z,15.07
2017-11-30T07:57:24.553Z,10.45
2017-11-30T07:59:52.676Z,14.30
2017-11-30T08:02:21.735Z,12.43
2017-11-30T08:04:50.704Z,11.27
2017-11-30T08:07:18.845Z,14.25
2017-11-30T08:09:46.998Z,11.80
2017-11-30T08:12:15.949Z,12.25
2017-11-30T08:14:44.088Z,11.27
2017-11-30T08:17:12.783Z,10.70
2017-11-30T08:19:41.656Z,12.88
2017-11-30T08:22:09.812Z,13.15
2017-11-30T08:24:38.760Z,12.45
2017-11-30T08:27:06.912Z,6.85
2017-11-30T08:29:35.020Z,7.83
2017-11-30T08:32:03.183Z,9.15
2017-11-30T08:34:31.367Z,10.35
2017-11-30T08:36:59.496Z,12.40
2017-11-30T08:39:27.660Z,9.50
2017-11-30T08:41:55.790Z,10.77
2017-11-30T08:44:23.953Z,9.10
2017-11-30T08:46:52.219Z,7.60
2017-11-30T08:49:20.335Z,10.05
2017-11-30T08:51:49.255Z,10.15
2017-11-30T08:54:17.383Z,7.28
2017-11-30T08:56:46.325Z,8.38
2017-11-30T08:59:14.516Z,8.00
2017-11-30T09:01:42.623Z,8.60
2017-11-30T09:04:11.509Z,9.82
2017-11-30T09:06:39.661Z,6.75
2017-11-30T09:09:07.877Z,9.63
2017-11-30T09:11:36.001Z,7.15
2017-11-30T09:14:04.122Z,8.77
2017-11-30T09:16:32.312Z,7.32
2017-11-30T09:19:00.465Z,7.90
2017-11-30T09:21:29.356Z,8.13
2017-11-30T09:23:57.479Z,6.45
2017-11-30T09:26:25.608Z,8.25
2017-11-30T09:28:53.824Z,8.03
2017-11-30T09:31:22.170Z,6.70
2017-11-30T09:33:51.055Z,12.52
2017-11-30T09:36:19.938Z,11.48
2017-11-30T09:38:48.090Z,7.40
2017-11-30T09:41:16.275Z,10.65
2017-11-30T09:43:44.436Z,10.03
2017-11-30T09:46:12.605Z,7.10
2017-11-30T09:48:40.713Z,8.07
2017-11-30T09:51:08.860Z,7.62
2017-11-30T09:53:37.747Z,7.12
2017-11-30T09:56:06.629Z,6.20
2017-11-30T09:58:34.786Z,7.47
2017-11-30T10:01:02.967Z,8.00
2017-11-30T10:03:31.929Z,6.78
2017-11-30T10:06:00.035Z,8.10
2017-11-30T10:08:28.150Z,8.43
2017-11-30T10:10:56.276Z,6.45
2017-11-30T10:13:25.232Z,9.17
2017-11-30T10:15:53.512Z,6.72
2017-11-30T10:18:21.767Z,6.03
2017-11-30T10:20:49.942Z,7.35
2017-11-30T10:23:18.110Z,8.65
2017-11-30T10:25:46.316Z,8.68
2017-11-30T10:28:14.443Z,6.65
2017-11-30T10:30:42.653Z,8.88
2017-11-30T10:33:10.851Z,7.68
2017-11-30T10:35:38.987Z,7.62
2017-11-30T10:38:07.131Z,5.40
2017-11-30T10:40:35.379Z,7.53
2017-11-30T10:43:03.513Z,7.07
2017-11-30T10:45:31.722Z,7.80
2017-11-30T10:48:00.693Z,6.78
2017-11-30T10:50:28.805Z,9.48
2017-11-30T10:52:57.736Z,6.43
2017-11-30T10:55:25.887Z,5.70
2017-11-30T10:57:54.007Z,6.57
2017-11-30T11:00:22.293Z,6.60
2017-11-30T11:02:50.414Z,5.25
2017-11-30T11:05:18.710Z,6.78
2017-11-30T11:07:46.845Z,6.97
2017-11-30T11:10:15.032Z,8.70
2017-11-30T11:12:43.182Z,5.93
2017-11-30T11:15:11.329Z,10.90
2017-11-30T11:17:39.641Z,6.60
2017-11-30T11:20:07.816Z,5.10
2017-11-30T11:22:36.029Z,10.23
2017-11-30T11:25:04.191Z,7.43
2017-11-30T11:27:32.323Z,8.38
2017-11-30T11:30:00.435Z,8.73
2017-11-30T11:32:28.616Z,8.20
2017-11-30T11:34:57.148Z,8.20
2017-11-30T11:37:25.345Z,8.55
2017-11-30T11:39:53.498Z,9.70
2017-11-30T11:42:22.594Z,9.15
2017-11-30T11:44:51.516Z,11.07
2017-11-30T11:47:19.642Z,11.70
2017-11-30T11:49:48.614Z,7.43
2017-11-30T11:52:16.772Z,7.87
2017-11-30T11:54:44.942Z,12.57
2017-11-30T11:57:13.119Z,9.10
2017-11-30T11:59:41.327Z,9.67
2017-11-30T12:02:10.322Z,9.23
2017-11-30T12:04:38.488Z,9.00
2017-11-30T12:07:07.463Z,7.47
2017-11-30T12:09:35.755Z,8.70
2017-11-30T12:12:03.965Z,10.52
2017-11-30T12:14:32.160Z,9.20
2017-11-30T12:17:00.308Z,8.98
2017-11-30T12:19:28.436Z,10.80
2017-11-30T12:21:56.609Z,10.45
2017-11-30T12:24:24.887Z,8.60
2017-11-30T12:26:53.008Z,11.27
2017-11-30T12:29:21.151Z,8.87
2017-11-30T12:31:50.070Z,10.15
2017-11-30T12:34:18.237Z,11.23
2017-11-30T12:36:46.410Z,8.40
2017-11-30T12:39:31.006Z,9.65
2017-11-30T12:42:23.240Z,13.30
2017-11-30T12:45:12.265Z,8.50
2017-11-30T12:47:57.571Z,9.88
2017-11-30T12:50:34.551Z,9.75
2017-11-30T12:53:23.381Z,10.75
2017-11-30T12:58:54.194Z,9.43
2017-11-30T13:04:25.046Z,9.07
2017-11-30T13:07:12.289Z,9.90
2017-11-30T13:09:59.206Z,9.90
2017-11-30T13:12:43.416Z,7.80
2017-11-30T13:18:18.233Z,7.80
2017-11-30T13:20:48.540Z,7.28
2017-11-30T13:23:17.936Z,7.32
2017-11-30T13:25:46.793Z,8.10
2017-11-30T13:28:15.700Z,9.02
2017-11-30T13:30:44.585Z,9.07
2017-11-30T13:33:13.507Z,7.03
2017-11-30T13:35:41.631Z,6.65
2017-11-30T13:38:09.764Z,8.73
2017-11-30T13:40:37.884Z,8.48
2017-11-30T13:43:06.051Z,9.98
2017-11-30T13:45:34.166Z,8.38
2017-11-30T13:48:02.302Z,7.43
2017-11-30T13:50:31.268Z,7.18
2017-11-30T13:52:59.449Z,8.98
2017-11-30T13:55:27.607Z,7.10
2017-11-30T13:57:55.731Z,7.62
2017-11-30T14:00:23.882Z,7.20
2017-11-30T14:02:52.768Z,10.30
2017-11-30T14:05:20.905Z,10.48
2017-11-30T14:07:49.040Z,7.28
2017-11-30T14:10:17.951Z,13.52
2017-11-30T14:12:46.128Z,7.30
2017-11-30T14:15:14.329Z,6.47
2017-11-30T14:17:42.467Z,7.80
2017-11-30T14:20:10.694Z,7.53
2017-11-30T14:22:38.806Z,6.70
2017-11-30T14:25:06.941Z,8.63
2017-11-30T14:27:36.024Z,10.38
2017-11-30T14:30:04.190Z,7.30
2017-11-30T14:32:32.426Z,8.07
2017-11-30T14:35:01.310Z,7.05
2017-11-30T14:37:29.463Z,7.18
2017-11-30T14:39:58.422Z,7.93
2017-11-30T14:42:26.523Z,9.38
2017-11-30T14:44:55.430Z,6.60
2017-11-30T14:47:23.625Z,10.27
2017-11-30T14:49:51.767Z,6.30
2017-11-30T14:52:20.675Z,8.90
2017-11-30T14:54:48.895Z,7.57
2017-11-30T14:57:17.004Z,8.45
2017-11-30T14:59:45.900Z,10.67
2017-11-30T15:02:14.098Z,8.52
2017-11-30T15:04:42.228Z,7.75
2017-11-30T15:07:11.168Z,8.15
2017-11-30T15:09:39.685Z,8.85
2017-11-30T15:12:07.935Z,9.90
2017-11-30T15:14:36.151Z,10.67
2017-11-30T15:17:05.068Z,9.27
2017-11-30T15:19:33.992Z,9.57
2017-11-30T15:22:02.121Z,10.35
2017-11-30T15:24:30.254Z,11.15
2017-11-30T15:26:58.594Z,8.30
2017-11-30T15:29:26.832Z,10.98
2017-11-30T15:31:54.967Z,9.48
2017-11-30T15:34:23.130Z,10.38
2017-11-30T15:36:51.258Z,8.70
2017-11-30T15:39:19.379Z,9.25
2017-11-30T15:41:47.533Z,9.27
2017-11-30T15:44:15.888Z,10.73
2017-11-30T15:46:44.791Z,8.85
2017-11-30T15:49:12.945Z,8.63
2017-11-30T15:51:41.068Z,6.82
2017-11-30T15:54:09.951Z,18.27
2017-11-30T15:56:38.867Z,13.70
2017-11-30T15:59:07.070Z,11.90
2017-11-30T16:01:35.383Z,10.88
2017-11-30T16:04:03.490Z,9.70
2017-11-30T16:06:31.652Z,8.50
2017-11-30T16:08:59.758Z,10.05
2017-11-30T16:11:28.036Z,11.50
2017-11-30T16:13:56.170Z,8.63
2017-11-30T16:16:24.310Z,10.70
2017-11-30T16:18:52.651Z,10.90
2017-11-30T16:21:20.797Z,9.95
2017-11-30T16:23:49.853Z,9.90
2017-11-30T16:26:18.030Z,19.52
2017-11-30T16:28:46.273Z,12.97
2017-11-30T16:31:14.431Z,12.18
2017-11-30T16:33:43.345Z,11.10
2017-11-30T16:36:11.469Z,12.57
2017-11-30T16:38:39.643Z,14.57
2017-11-30T16:41:09.324Z,13.15
2017-11-30T16:43:37.537Z,11.37
2017-11-30T16:46:05.702Z,10.07
2017-11-30T16:48:34.614Z,7.53
2017-11-30T16:51:02.775Z,7.18
2017-11-30T16:53:31.804Z,6.43
2017-11-30T16:55:59.925Z,7.70
2017-11-30T16:58:28.135Z,8.17
2017-11-30T17:00:56.310Z,9.65
2017-11-30T17:03:24.441Z,9.77
2017-11-30T17:05:53.433Z,8.25
2017-11-30T17:08:21.632Z,10.35
2017-11-30T17:10:50.514Z,8.25
2017-11-30T17:13:19.453Z,8.88
2017-11-30T17:15:48.636Z,9.40
2017-11-30T17:18:16.956Z,16.35
2017-11-30T17:20:45.346Z,10.20
2017-11-30T17:23:13.691Z,11.82
2017-11-30T17:25:41.823Z,11.40
2017-11-30T17:28:10.002Z,11.00
2017-11-30T17:30:38.884Z,12.13
2017-11-30T17:33:07.063Z,15.57
2017-11-30T17:35:35.453Z,8.35
2017-11-30T17:38:03.586Z,12.50
2017-11-30T17:40:32.557Z,11.45
2017-11-30T17:43:00.752Z,10.80
2017-11-30T17:45:29.645Z,11.33
2017-11-30T17:47:58.671Z,12.65
2017-11-30T17:50:26.814Z,13.20
2017-11-30T17:52:55.700Z,12.18
2017-11-30T17:55:24.629Z,13.77
2017-11-30T17:57:52.750Z,16.77
2017-11-30T18:00:20.968Z,12.52
2017-11-30T18:02:49.113Z,11.77
2017-11-30T18:05:17.313Z,13.05
2017-11-30T18:07:45.455Z,11.57
2017-11-30T18:10:13.771Z,8.95
2017-11-30T18:12:41.966Z,14.82
2017-11-30T18:15:10.180Z,10.23
2017-11-30T18:17:38.559Z,10.32
2017-11-30T18:20:07.495Z,10.57
2017-11-30T18:22:35.685Z,13.95
2017-11-30T18:25:03.912Z,15.30
2017-11-30T18:27:32.811Z,12.05
2017-11-30T18:30:00.970Z,12.35
2017-11-30T18:32:29.879Z,10.73
2017-11-30T18:34:58.088Z,11.55
2017-11-30T18:37:26.290Z,12.63
2017-11-30T18:39:54.844Z,11.82
2017-11-30T18:42:23.131Z,11.35
2017-11-30T18:44:51.288Z,10.23
2017-11-30T18:47:19.424Z,8.95
2017-11-30T18:49:47.596Z,10.82
2017-11-30T18:52:15.746Z,10.68
2017-11-30T18:54:44.168Z,10.75
2017-11-30T18:57:12.330Z,12.93
2017-11-30T18:59:41.259Z,11.67
2017-11-30T19:02:09.575Z,10.65
2017-11-30T19:04:38.467Z,10.82
2017-11-30T19:07:06.603Z,13.85
2017-11-30T19:09:34.988Z,10.45
2017-11-30T19:12:03.094Z,8.85
2017-11-30T19:14:31.389Z,10.53
2017-11-30T19:17:00.622Z,12.65
2017-11-30T19:19:28.820Z,10.70
2017-11-30T19:21:57.735Z,12.37
2017-11-30T19:24:26.631Z,10.00
2017-11-30T19:26:55.868Z,20.02
2017-11-30T19:29:24.004Z,16.12
2017-11-30T19:31:52.151Z,14.07
2017-11-30T19:34:21.036Z,11.40
2017-11-30T19:36:50.009Z,13.45
2017-11-30T19:39:18.134Z,8.80
2017-11-30T19:41:47.146Z,8.27
2017-11-30T19:44:15.298Z,8.47
2017-11-30T19:46:43.471Z,8.82
2017-11-30T19:49:11.622Z,9.20
2017-11-30T19:51:40.957Z,8.75
2017-11-30T19:54:09.128Z,9.77
2017-11-30T19:56:37.327Z,9.98
2017-11-30T19:59:05.505Z,17.90
2017-11-30T20:01:33.667Z,9.57
2017-11-30T20:04:01.851Z,9.60
2017-11-30T20:06:30.051Z,15.63
2017-11-30T20:08:58.282Z,12.52
2017-11-30T20:11:26.789Z,13.50
2017-11-30T20:13:55.028Z,10.67
2017-11-30T20:16:23.292Z,10.52
2017-11-30T20:18:52.029Z,8.88
2017-11-30T20:21:20.483Z,7.90
2017-11-30T20:23:48.927Z,8.73
2017-11-30T20:26:17.270Z,9.35
2017-11-30T20:28:45.590Z,8.43
2017-11-30T20:31:13.835Z,11.88
2017-11-30T20:33:42.412Z,8.48
2017-11-30T20:36:10.634Z,13.18
2017-11-30T20:38:38.910Z,8.65
2017-11-30T20:41:07.088Z,8.02
2017-11-30T20:43:35.607Z,8.90
2017-11-30T20:46:03.823Z,7.85
2017-11-30T20:48:31.966Z,12.50
2017-11-30T20:51:01.016Z,27.67
2017-11-30T20:53:29.510Z,8.20
2017-11-30T20:55:57.877Z,8.05
2017-11-30T20:58:26.883Z,9.13
2017-11-30T21:00:55.626Z,11.73
2017-11-30T21:03:24.271Z,11.20
2017-11-30T21:05:52.862Z,11.20
2017-11-30T21:08:22.127Z,10.15
2017-11-30T21:10:51.363Z,10.40
2017-11-30T21:13:19.784Z,9.73
2017-11-30T21:15:48.520Z,10.43
2017-11-30T21:18:16.649Z,8.30
2017-11-30T21:20:45.106Z,10.18
2017-11-30T21:23:13.238Z,7.85
2017-11-30T21:25:41.393Z,9.57
2017-11-30T21:28:09.735Z,9.65
2017-11-30T21:30:37.931Z,9.00
2017-11-30T21:33:06.093Z,28.25
2017-11-30T21:35:34.350Z,28.25
2017-11-30T21:38:02.453Z,17.55
2017-11-30T21:40:30.800Z,74.68
2017-11-30T21:42:58.931Z,16.02
2017-11-30T21:45:27.878Z,11.93
2017-11-30T21:47:56.015Z,24.12
2017-11-30T21:50:24.170Z,15.70
2017-11-30T21:52:53.061Z,11.38
2017-11-30T21:55:21.524Z,11.40
2017-11-30T21:57:49.839Z,9.80
2017-11-30T22:00:18.073Z,13.73
2017-11-30T22:02:46.207Z,10.13
2017-11-30T22:05:14.458Z,9.55
2017-11-30T22:07:43.470Z,9.50
2017-11-30T22:10:12.411Z,14.43
2017-11-30T22:12:40.540Z,9.90
2017-11-30T22:15:09.912Z,14.47
2017-11-30T22:17:38.107Z,16.67
2017-11-30T22:20:07.015Z,19.80
2017-11-30T22:22:35.152Z,17.98
2017-11-30T22:25:03.296Z,12.10
2017-11-30T22:27:31.460Z,11.10
2017-11-30T22:29:59.620Z,10.33
2017-11-30T22:32:27.770Z,9.65
2017-11-30T22:34:55.974Z,9.45
2017-11-30T22:37:24.148Z,10.27
2017-11-30T22:39:52.261Z,18.35
2017-11-30T22:42:20.410Z,14.32
2017-11-30T22:44:48.822Z,17.70
2017-11-30T22:47:17.019Z,13.77
2017-11-30T22:49:45.135Z,9.05
2017-11-30T22:52:13.268Z,9.57
2017-11-30T22:54:41.393Z,8.88
2017-11-30T22:57:11.117Z,7.40
2017-11-30T22:59:39.238Z,6.60
2017-11-30T23:02:07.374Z,8.52
2017-11-30T23:04:36.261Z,5.75
2017-11-30T23:07:05.167Z,6.28
2017-11-30T23:09:33.287Z,6.32
2017-11-30T23:12:01.434Z,6.00
2017-11-30T23:14:29.772Z,6.50
2017-11-30T23:16:58.670Z,5.87
2017-11-30T23:19:27.593Z,7.40
2017-11-30T23:21:55.774Z,5.78
2017-11-30T23:24:23.880Z,7.37
2017-11-30T23:26:52.006Z,6.20
2017-11-30T23:29:20.194Z,5.75
2017-11-30T23:31:48.484Z,5.90
2017-11-30T23:34:16.671Z,5.87
2017-11-30T23:36:44.800Z,6.12
2017-11-30T23:39:12.911Z,6.20
2017-11-30T23:41:41.042Z,4.30
2017-11-30T23:44:09.161Z,5.07
2017-11-30T23:46:37.304Z,6.35
2017-11-30T23:49:05.400Z,4.30
2017-11-30T23:51:33.636Z,4.32
2017-11-30T23:54:02.489Z,6.05
2017-11-30T23:56:31.379Z,4.47
2017-11-30T23:59:00.262Z,6.30
